sensor_id;sensor_type;location;lat;lon;timestamp;temperature;humidity
5956;DHT22;3004;48.080;11.600;2022-12-08T06:00:54;-0.50;99.90
5956;DHT22;3004;48.080;11.600;2022-12-08T06:04:03;-0.40;99.90
5956;DHT22;3004;48.080;11.600;2022-12-08T06:10:09;-0.50;99.90
5956;DHT22;3004;48.080;11.600;2022-12-08T06:12:38;-0.50;99.90
5956;DHT22;3004;48.080;11.600;2022-12-08T06:15:29;-0.50;99.90
5956;DHT22;3004;48.080;11.600;2022-12-08T06:18:16;-0.50;99.90
5956;DHT22;3004;48.080;11.600;2022-12-08T06:21:15;-0.50;99.90
5956;DHT22;3004;48.080;11.600;2022-12-08T06:24:04;-0.50;99.90
5956;DHT22;3004;48.080;11.600;2022-12-08T06:26:48;-0.50;99.90
5956;DHT22;3004;48.080;11.600;2022-12-08T06:29:23;-0.50;99.90
5956;DHT22;3004;48.080;11.600;2022-12-08T06:32:08;-0.50;99.90
5956;DHT22;3004;48.080;11.600;2022-12-08T06:34:47;-0.50;99.90
5956;DHT22;3004;48.080;11.600;2022-12-08T06:37:24;-0.50;99.90
5956;DHT22;3004;48.080;11.600;2022-12-08T06:43:12;-0.50;99.90
5956;DHT22;3004;48.080;11.600;2022-12-08T06:45:56;-0.40;99.90
5956;DHT22;3004;48.080;11.600;2022-12-08T06:48:42;-0.40;99.90
5956;DHT22;3004;48.080;11.600;2022-12-08T06:57:50;-0.50;99.90
5956;DHT22;3004;48.080;11.600;2022-12-08T07:00:31;-0.50;99.90
5956;DHT22;3004;48.080;11.600;2022-12-08T07:03:26;-0.60;99.90
5956;DHT22;3004;48.080;11.600;2022-12-08T07:06:24;-0.60;99.90
5956;DHT22;3004;48.080;11.600;2022-12-08T07:08:55;-0.70;99.90
5956;DHT22;3004;48.080;11.600;2022-12-08T07:43:52;-0.20;99.90
5956;DHT22;3004;48.080;11.600;2022-12-08T07:47:13;-0.10;99.90
5956;DHT22;3004;48.080;11.600;2022-12-08T08:24:38;0.70;99.90
5956;DHT22;3004;48.080;11.600;2022-12-08T08:27:15;0.70;99.90
5956;DHT22;3004;48.080;11.600;2022-12-08T08:33:29;0.80;99.90
5956;DHT22;3004;48.080;11.600;2022-12-08T09:31:13;2.30;99.90
5956;DHT22;3004;48.080;11.600;2022-12-08T09:37:43;2.40;99.90
5956;DHT22;3004;48.080;11.600;2022-12-08T10:11:15;2.90;99.90
5956;DHT22;3004;48.080;11.600;2022-12-08T10:14:17;3.10;99.90
5956;DHT22;3004;48.080;11.600;2022-12-08T10:20:37;3.20;99.90
5956;DHT22;3004;48.080;11.600;2022-12-08T10:29:47;3.10;99.90
5956;DHT22;3004;48.080;11.600;2022-12-08T10:32:23;3.10;99.90
5956;DHT22;3004;48.080;11.600;2022-12-08T10:48:26;2.90;99.90
5956;DHT22;3004;48.080;11.600;2022-12-08T11:06:39;3.00;99.90
5956;DHT22;3004;48.080;11.600;2022-12-08T11:09:22;3.00;99.90
5956;DHT22;3004;48.080;11.600;2022-12-08T11:15:15;3.10;99.90
5956;DHT22;3004;48.080;11.600;2022-12-08T11:21:07;3.00;99.90
5956;DHT22;3004;48.080;11.600;2022-12-08T11:23:40;3.10;99.90
5956;DHT22;3004;48.080;11.600;2022-12-08T11:26:17;3.10;99.90
5956;DHT22;3004;48.080;11.600;2022-12-08T11:35:33;3.10;99.90
5956;DHT22;3004;48.080;11.600;2022-12-08T11:41:39;3.30;99.90
5956;DHT22;3004;48.080;11.600;2022-12-08T11:44:19;3.20;99.90
5956;DHT22;3004;48.080;11.600;2022-12-08T11:46:58;3.30;99.90
5956;DHT22;3004;48.080;11.600;2022-12-08T11:52:59;3.30;99.90
5956;DHT22;3004;48.080;11.600;2022-12-08T11:55:31;3.20;99.90
5956;DHT22;3004;48.080;11.600;2022-12-08T11:58:13;3.30;99.90
5956;DHT22;3004;48.080;11.600;2022-12-08T12:00:52;3.30;99.90
5956;DHT22;3004;48.080;11.600;2022-12-08T12:07:39;3.20;99.90
5956;DHT22;3004;48.080;11.600;2022-12-08T15:15:52;2.10;99.90
5956;DHT22;3004;48.080;11.600;2022-12-08T15:19:13;2.00;99.90
5956;DHT22;3004;48.080;11.600;2022-12-08T15:22:33;1.90;99.90
5956;DHT22;3004;48.080;11.600;2022-12-08T15:25:28;1.90;99.90
5956;DHT22;3004;48.080;11.600;2022-12-08T15:28:39;1.70;99.90
5956;DHT22;3004;48.080;11.600;2022-12-08T15:53:04;0.90;99.90
5956;DHT22;3004;48.080;11.600;2022-12-08T19:01:25;-1.80;99.90
5956;DHT22;3004;48.080;11.600;2022-12-08T19:04:38;-1.80;99.90
5956;DHT22;3004;48.080;11.600;2022-12-08T19:11:30;-1.80;99.90
5956;DHT22;3004;48.080;11.600;2022-12-08T19:22:25;-1.90;99.90
5956;DHT22;3004;48.080;11.600;2022-12-08T19:26:26;-1.90;99.90
5956;DHT22;3004;48.080;11.600;2022-12-08T19:31:34;-2.00;99.90
5956;DHT22;3004;48.080;11.600;2022-12-08T19:37:51;-2.00;99.90
5956;DHT22;3004;48.080;11.600;2022-12-08T19:40:58;-2.00;99.90
5956;DHT22;3004;48.080;11.600;2022-12-08T19:44:03;-2.00;99.90
5956;DHT22;3004;48.080;11.600;2022-12-08T19:46:58;-2.10;99.90
5956;DHT22;3004;48.080;11.600;2022-12-08T19:56:54;-2.20;99.90
5956;DHT22;3004;48.080;11.600;2022-12-08T19:59:41;-2.30;99.90
5956;DHT22;3004;48.080;11.600;2022-12-08T20:02:27;-2.20;99.90
5956;DHT22;3004;48.080;11.600;2022-12-08T20:05:16;-2.20;99.90
5956;DHT22;3004;48.080;11.600;2022-12-08T20:11:52;-2.20;99.90
5956;DHT22;3004;48.080;11.600;2022-12-08T20:14:31;-2.10;99.90
5956;DHT22;3004;48.080;11.600;2022-12-08T20:17:22;-2.20;99.90
5956;DHT22;3004;48.080;11.600;2022-12-08T20:20:08;-2.30;99.90
5956;DHT22;3004;48.080;11.600;2022-12-08T20:22:55;-2.30;99.90
5956;DHT22;3004;48.080;11.600;2022-12-08T20:25:49;-2.40;99.90
5956;DHT22;3004;48.080;11.600;2022-12-08T20:28:41;-2.40;99.90
5956;DHT22;3004;48.080;11.600;2022-12-08T20:31:26;-2.40;99.90
5956;DHT22;3004;48.080;11.600;2022-12-08T20:34:06;-2.40;99.90
5956;DHT22;3004;48.080;11.600;2022-12-08T20:38:12;-2.50;99.90
5956;DHT22;3004;48.080;11.600;2022-12-08T20:41:11;-2.50;99.90
5956;DHT22;3004;48.080;11.600;2022-12-08T20:43:58;-2.50;99.90
5956;DHT22;3004;48.080;11.600;2022-12-08T20:46:36;-2.60;99.90
5956;DHT22;3004;48.080;11.600;2022-12-08T20:49:22;-2.60;99.90
5956;DHT22;3004;48.080;11.600;2022-12-08T20:52:21;-2.60;99.90
5956;DHT22;3004;48.080;11.600;2022-12-08T20:58:25;-2.50;99.90
5956;DHT22;3004;48.080;11.600;2022-12-08T21:01:20;-2.40;99.90
5956;DHT22;3004;48.080;11.600;2022-12-08T21:03:51;-2.40;99.90
5956;DHT22;3004;48.080;11.600;2022-12-08T21:06:28;-2.50;99.90
5956;DHT22;3004;48.080;11.600;2022-12-08T21:12:37;-2.50;99.90
5956;DHT22;3004;48.080;11.600;2022-12-08T21:15:22;-2.60;99.90
5956;DHT22;3004;48.080;11.600;2022-12-08T21:18:10;-2.80;99.90
5956;DHT22;3004;48.080;11.600;2022-12-08T21:21:07;-2.80;99.90
5956;DHT22;3004;48.080;11.600;2022-12-08T21:23:56;-2.80;99.90
5956;DHT22;3004;48.080;11.600;2022-12-08T21:26:34;-2.90;99.90
5956;DHT22;3004;48.080;11.600;2022-12-08T21:29:24;-2.80;99.90
5956;DHT22;3004;48.080;11.600;2022-12-08T21:32:24;-2.90;99.90
5956;DHT22;3004;48.080;11.600;2022-12-08T21:35:10;-2.90;99.90
5956;DHT22;3004;48.080;11.600;2022-12-08T21:37:41;-2.80;99.90
5956;DHT22;3004;48.080;11.600;2022-12-08T21:40:57;-2.80;99.90
5956;DHT22;3004;48.080;11.600;2022-12-08T21:43:47;-2.80;99.90
5956;DHT22;3004;48.080;11.600;2022-12-08T21:46:21;-2.80;99.90
5956;DHT22;3004;48.080;11.600;2022-12-08T21:48:57;-2.70;99.90
5956;DHT22;3004;48.080;11.600;2022-12-08T21:51:31;-2.60;99.90
5956;DHT22;3004;48.080;11.600;2022-12-08T21:54:12;-2.60;99.90
5956;DHT22;3004;48.080;11.600;2022-12-08T21:56:47;-2.50;99.90
5956;DHT22;3004;48.080;11.600;2022-12-08T21:59:22;-2.50;99.90
5956;DHT22;3004;48.080;11.600;2022-12-08T22:01:54;-2.60;99.90
5956;DHT22;3004;48.080;11.600;2022-12-08T22:04:27;-2.60;99.90
5956;DHT22;3004;48.080;11.600;2022-12-08T22:07:02;-2.60;99.90
5956;DHT22;3004;48.080;11.600;2022-12-08T22:09:31;-2.60;99.90
5956;DHT22;3004;48.080;11.600;2022-12-08T22:12:02;-2.50;99.90
5956;DHT22;3004;48.080;11.600;2022-12-08T22:14:37;-2.50;99.90
5956;DHT22;3004;48.080;11.600;2022-12-08T22:17:08;-2.50;99.90
5956;DHT22;3004;48.080;11.600;2022-12-08T22:19:35;-2.60;99.90
5956;DHT22;3004;48.080;11.600;2022-12-08T22:22:04;-2.50;99.90
5956;DHT22;3004;48.080;11.600;2022-12-08T22:24:31;-2.50;99.90
5956;DHT22;3004;48.080;11.600;2022-12-08T22:26:59;-2.50;99.90
5956;DHT22;3004;48.080;11.600;2022-12-08T22:29:26;-2.50;99.90
5956;DHT22;3004;48.080;11.600;2022-12-08T22:31:53;-2.50;99.90
5956;DHT22;3004;48.080;11.600;2022-12-08T22:34:22;-2.50;99.90
5956;DHT22;3004;48.080;11.600;2022-12-08T22:36:49;-2.60;99.90
5956;DHT22;3004;48.080;11.600;2022-12-08T22:39:18;-2.60;99.90
5956;DHT22;3004;48.080;11.600;2022-12-08T22:41:45;-2.60;99.90
5956;DHT22;3004;48.080;11.600;2022-12-08T22:44:14;-2.60;99.90
5956;DHT22;3004;48.080;11.600;2022-12-08T22:46:41;-2.50;99.90
5956;DHT22;3004;48.080;11.600;2022-12-08T22:49:14;-2.50;99.90
5956;DHT22;3004;48.080;11.600;2022-12-08T22:51:44;-2.50;99.90
5956;DHT22;3004;48.080;11.600;2022-12-08T22:54:11;-2.60;99.90
5956;DHT22;3004;48.080;11.600;2022-12-08T22:56:46;-2.60;99.90
5956;DHT22;3004;48.080;11.600;2022-12-08T22:59:13;-2.70;99.90
5956;DHT22;3004;48.080;11.600;2022-12-08T23:01:42;-2.70;99.90
5956;DHT22;3004;48.080;11.600;2022-12-08T23:04:10;-2.70;99.90
5956;DHT22;3004;48.080;11.600;2022-12-08T23:06:37;-2.80;99.90
5956;DHT22;3004;48.080;11.600;2022-12-08T23:09:04;-2.80;99.90
5956;DHT22;3004;48.080;11.600;2022-12-08T23:11:33;-2.90;99.90
5956;DHT22;3004;48.080;11.600;2022-12-08T23:14:02;-2.90;99.90
5956;DHT22;3004;48.080;11.600;2022-12-08T23:16:29;-2.80;99.90
5956;DHT22;3004;48.080;11.600;2022-12-08T23:19:00;-2.80;99.90
5956;DHT22;3004;48.080;11.600;2022-12-08T23:21:27;-2.90;99.90
5956;DHT22;3004;48.080;11.600;2022-12-08T23:23:55;-2.90;99.90
5956;DHT22;3004;48.080;11.600;2022-12-08T23:26:24;-2.90;99.90
5956;DHT22;3004;48.080;11.600;2022-12-08T23:28:52;-2.90;99.90
5956;DHT22;3004;48.080;11.600;2022-12-08T23:31:22;-2.90;99.90
5956;DHT22;3004;48.080;11.600;2022-12-08T23:33:52;-2.90;99.90
5956;DHT22;3004;48.080;11.600;2022-12-08T23:36:22;-3.00;99.90
5956;DHT22;3004;48.080;11.600;2022-12-08T23:38:59;-2.90;99.90
5956;DHT22;3004;48.080;11.600;2022-12-08T23:41:26;-2.80;99.90
5956;DHT22;3004;48.080;11.600;2022-12-08T23:43:53;-2.90;99.90
5956;DHT22;3004;48.080;11.600;2022-12-08T23:46:22;-2.90;99.90
5956;DHT22;3004;48.080;11.600;2022-12-08T23:49:01;-2.80;99.90
5956;DHT22;3004;48.080;11.600;2022-12-08T23:51:28;-2.80;99.90
5956;DHT22;3004;48.080;11.600;2022-12-08T23:53:55;-2.90;99.90
5956;DHT22;3004;48.080;11.600;2022-12-08T23:56:24;-2.80;99.90
5956;DHT22;3004;48.080;11.600;2022-12-08T23:58:51;-2.80;99.90
